イスタンブル の空港の天気 - METARとTAF

アタテュルク国際空港(イスタンブル) ( LTBA / IST ) - トルコ イスタンブル
飛行場実況気象(Metar)
観測時間02/28 03:20 +03 (02/28 00:20 UTC)
風向・風速不定 1m/s
視程4000m
天気現象もや
なし
気温6℃
湿度100%
気圧1017hPa
METARLTBA 280020Z VRB02KT 4000 BR NSC 06/06 Q1017 NOSIG RMK RWY17L 00000KT RWY05 VRB02KT RWY23 00000KT
過去の天気等 Google飛行場航空写真 Wunderground天気予報

過去48時間のMETAR

飛行場予報(TAF)
発表時間: 2/28 01:40 +03 (2/27 22:40 UTC)
予報対象時間: 28日3時 +03 ~ 1日9時 +03
風向・風速不定 1m/s
視程4,000m
天気現象もや
なし
28日9時 +03 ~ 28日12時 +03 に徐々に
視程10km以上
なし
28日19時 +03 ~ 28日22時 +03 に徐々に
視程4,000m
天気現象もや
28日23時 +03 から 確率 40% で
視程1,600m
天気現象散在した霧
全天の8割程度の雲 雲底高度 180m
1日4時 +03 ~ 1日8時 +03 に一時的に
視程1,600m
天気現象散在した霧
全天の8割程度の雲 雲底高度 180m
TAF LTBA 272240Z 2800/0106 VRB02KT 4000 BR NSC
BECMG 2806/2809 CAVOK
BECMG 2816/2819 4000 BR
PROB40 2820/2824 1600 BCFG BKN006
TEMPO 0101/0105 1600 BCFG BKN006